M/V Taku — WI9491 — position and weather

sailwx.info

Track history (hours):
 
Tides and Currents Weather Stations Pressure Air Temp Water Temp Dewpoint Dewpoint Depression Visibility Wind Speed Wind Dir Waves Ship Positions

M/V Taku

More information available from US FCC via Universal Licensing System and Coast Guard Vessel Documentation Center.

Last reported at 2014-Jul-24 15:33 UTC. Time now 2014-Jul-25 18:21 UTC.
Position N 54°23' W 130°36'.

Type: Ship. MMSI: 338697000.

Date/timePositionNaut miles runAvg speedWind from/ knotsBaromVisibWave heightAir tempDewpointWater temp
2014-Jul-24 15:33N 54°23' W 130°36'11 9.1
2014-Jul-24 14:23N 54°17' W 130°22'1 1.5
2014-Jul-24 13:32N 54°18' W 130°21'0 0.0
2014-Jul-24 12:32N 54°18' W 130°21'0 0.0
2014-Jul-24 11:32N 54°18' W 130°21'5 3.4
2014-Jul-24 10:06N 54°14' W 130°27'915.3
2014-Jul-24 09:32N 54°21' W 130°36'  
2014-Jul-21 01:07N 54°30' W 130°38'916.5
2014-Jul-21 00:33N 54°21' W 130°36'9 8.4
2014-Jul-20 23:26N 54°16' W 130°22'2 1.7
2014-Jul-20 22:32N 54°18' W 130°21'0 0.0
2014-Jul-20 21:32N 54°18' W 130°21'0 0.0
2014-Jul-20 20:32N 54°18' W 130°21'5 3.5
2014-Jul-20 19:09N 54°14' W 130°27'915.8
2014-Jul-20 18:33N 54°22' W 130°36'  
2014-Jul-17 13:14N 54°24' W 130°36'10 6.2
2014-Jul-17 11:33N 54°18' W 130°21'0 0.0
2014-Jul-17 10:33N 54°18' W 130°21'0 0.0
2014-Jul-17 09:33N 54°18' W 130°21'  
Track history (hours):
 
Tides and Currents Weather Stations Pressure Air Temp Water Temp Dewpoint Dewpoint Depression Visibility Wind Speed Wind Dir Waves Ship Positions

M/V Taku

More information available from US FCC via Universal Licensing System and Coast Guard Vessel Documentation Center.

Last reported at 2014-Jul-24 15:33 UTC. Time now 2014-Jul-25 18:21 UTC.
Position N 54°23' W 130°36'.

Type: Ship. MMSI: 338697000.

Date/timePositionNaut miles runAvg speedWind from/ knotsBaromVisibWave heightAir tempDewpointWater temp
2014-Jul-24 15:33N 54°23' W 130°36'11 9.1
2014-Jul-24 14:23N 54°17' W 130°22'1 1.5
2014-Jul-24 13:32N 54°18' W 130°21'0 0.0
2014-Jul-24 12:32N 54°18' W 130°21'0 0.0
2014-Jul-24 11:32N 54°18' W 130°21'5 3.4
2014-Jul-24 10:06N 54°14' W 130°27'915.3
2014-Jul-24 09:32N 54°21' W 130°36'  
2014-Jul-21 01:07N 54°30' W 130°38'916.5
2014-Jul-21 00:33N 54°21' W 130°36'9 8.4
2014-Jul-20 23:26N 54°16' W 130°22'2 1.7
2014-Jul-20 22:32N 54°18' W 130°21'0 0.0
2014-Jul-20 21:32N 54°18' W 130°21'0 0.0
2014-Jul-20 20:32N 54°18' W 130°21'5 3.5
2014-Jul-20 19:09N 54°14' W 130°27'915.8
2014-Jul-20 18:33N 54°22' W 130°36'  
2014-Jul-17 13:14N 54°24' W 130°36'10 6.2
2014-Jul-17 11:33N 54°18' W 130°21'0 0.0
2014-Jul-17 10:33N 54°18' W 130°21'0 0.0
2014-Jul-17 09:33N 54°18' W 130°21'  

Dump ship's entire track history